sensor_id;sensor_type;location;lat;lon;timestamp;pressure;altitude;pressure_sealevel;temperature;humidity
21980;BME280;11154;48.558;9.234;2022-08-04T00:01:03;97343.59;;;23.12;78.97
21980;BME280;11154;48.558;9.234;2022-08-04T00:03:12;97346.16;;;23.18;78.90
21980;BME280;11154;48.558;9.234;2022-08-04T00:05:22;97345.59;;;23.16;78.40
21980;BME280;11154;48.558;9.234;2022-08-04T00:07:28;97343.72;;;23.17;78.18
21980;BME280;11154;48.558;9.234;2022-08-04T00:11:44;97337.09;;;23.13;78.80
21980;BME280;11154;48.558;9.234;2022-08-04T00:13:52;97342.78;;;23.11;78.53
21980;BME280;11154;48.558;9.234;2022-08-04T00:15:57;97342.44;;;23.08;78.70
21980;BME280;11154;48.558;9.234;2022-08-04T00:18:02;97344.22;;;23.02;78.62
21980;BME280;11154;48.558;9.234;2022-08-04T00:20:05;97344.72;;;22.99;79.18
21980;BME280;11154;48.558;9.234;2022-08-04T00:22:10;97347.09;;;22.96;79.71
21980;BME280;11154;48.558;9.234;2022-08-04T00:24:15;97348.88;;;22.90;79.77
21980;BME280;11154;48.558;9.234;2022-08-04T00:26:17;97347.22;;;22.89;80.73
21980;BME280;11154;48.558;9.234;2022-08-04T00:28:20;97344.75;;;22.88;80.52
21980;BME280;11154;48.558;9.234;2022-08-04T00:30:22;97349.38;;;22.87;80.24
21980;BME280;11154;48.558;9.234;2022-08-04T00:32:25;97356.44;;;22.88;79.95
21980;BME280;11154;48.558;9.234;2022-08-04T00:34:28;97353.47;;;22.90;79.77
21980;BME280;11154;48.558;9.234;2022-08-04T00:36:30;97354.28;;;22.90;79.75
21980;BME280;11154;48.558;9.234;2022-08-04T00:38:33;97362.34;;;22.85;80.12
21980;BME280;11154;48.558;9.234;2022-08-04T00:40:42;97354.78;;;22.87;79.71
21980;BME280;11154;48.558;9.234;2022-08-04T00:42:53;97351.22;;;22.87;80.07
21980;BME280;11154;48.558;9.234;2022-08-04T00:45:22;97359.03;;;22.83;81.05
21980;BME280;11154;48.558;9.234;2022-08-04T00:47:38;97357.38;;;22.82;81.07
21980;BME280;11154;48.558;9.234;2022-08-04T00:50:02;97362.47;;;22.79;80.89
21980;BME280;11154;48.558;9.234;2022-08-04T00:52:09;97358.50;;;22.70;80.25
21980;BME280;11154;48.558;9.234;2022-08-04T00:54:22;97358.75;;;22.68;79.33
21980;BME280;11154;48.558;9.234;2022-08-04T00:56:47;97363.22;;;22.63;77.15
21980;BME280;11154;48.558;9.234;2022-08-04T00:59:02;97362.88;;;22.59;77.05
21980;BME280;11154;48.558;9.234;2022-08-04T01:01:06;97360.09;;;22.54;76.28
21980;BME280;11154;48.558;9.234;2022-08-04T01:03:13;97361.59;;;22.51;76.35
21980;BME280;11154;48.558;9.234;2022-08-04T01:05:20;97363.38;;;22.56;76.86
21980;BME280;11154;48.558;9.234;2022-08-04T01:07:45;97365.00;;;22.57;76.33
21980;BME280;11154;48.558;9.234;2022-08-04T01:09:59;97363.38;;;22.56;76.39
21980;BME280;11154;48.558;9.234;2022-08-04T01:12:12;97359.84;;;22.56;76.43
21980;BME280;11154;48.558;9.234;2022-08-04T01:14:26;97358.78;;;22.57;76.55
21980;BME280;11154;48.558;9.234;2022-08-04T01:16:34;97359.03;;;22.55;76.65
21980;BME280;11154;48.558;9.234;2022-08-04T01:18:50;97361.00;;;22.60;76.74
21980;BME280;11154;48.558;9.234;2022-08-04T01:20:57;97357.81;;;22.63;76.55
21980;BME280;11154;48.558;9.234;2022-08-04T01:28:28;97359.81;;;22.67;76.62
21980;BME280;11154;48.558;9.234;2022-08-04T01:30:32;97357.66;;;22.69;76.69
21980;BME280;11154;48.558;9.234;2022-08-04T01:32:36;97350.63;;;22.68;76.88
21980;BME280;11154;48.558;9.234;2022-08-04T01:34:41;97351.94;;;22.66;77.87
21980;BME280;11154;48.558;9.234;2022-08-04T01:36:45;97350.84;;;22.67;76.70
21980;BME280;11154;48.558;9.234;2022-08-04T01:38:48;97349.44;;;22.64;77.26
21980;BME280;11154;48.558;9.234;2022-08-04T01:40:52;97343.91;;;22.59;78.37
21980;BME280;11154;48.558;9.234;2022-08-04T01:42:54;97347.94;;;22.57;78.70
21980;BME280;11154;48.558;9.234;2022-08-04T01:45:00;97346.28;;;22.56;79.31
21980;BME280;11154;48.558;9.234;2022-08-04T01:47:06;97336.06;;;22.47;80.12
21980;BME280;11154;48.558;9.234;2022-08-04T01:49:09;97339.13;;;22.39;80.35
21980;BME280;11154;48.558;9.234;2022-08-04T01:51:12;97337.72;;;22.36;79.89
21980;BME280;11154;48.558;9.234;2022-08-04T01:53:14;97338.78;;;22.35;80.17
21980;BME280;11154;48.558;9.234;2022-08-04T01:55:16;97337.88;;;22.30;80.92
21980;BME280;11154;48.558;9.234;2022-08-04T01:57:17;97343.47;;;22.28;80.18
21980;BME280;11154;48.558;9.234;2022-08-04T01:59:21;97337.41;;;22.21;81.57
21980;BME280;11154;48.558;9.234;2022-08-04T02:01:23;97339.97;;;22.16;82.05
21980;BME280;11154;48.558;9.234;2022-08-04T02:03:26;97346.22;;;22.17;82.60
21980;BME280;11154;48.558;9.234;2022-08-04T02:05:27;97340.22;;;22.15;82.57
21980;BME280;11154;48.558;9.234;2022-08-04T02:07:41;97330.44;;;22.14;82.13
21980;BME280;11154;48.558;9.234;2022-08-04T02:09:52;97336.34;;;22.11;82.69
21980;BME280;11154;48.558;9.234;2022-08-04T02:12:02;97326.13;;;22.01;83.23
21980;BME280;11154;48.558;9.234;2022-08-04T02:14:12;97329.19;;;21.93;83.64
21980;BME280;11154;48.558;9.234;2022-08-04T02:16:43;97326.38;;;21.88;84.71
21980;BME280;11154;48.558;9.234;2022-08-04T02:18:49;97333.28;;;21.84;85.08
21980;BME280;11154;48.558;9.234;2022-08-04T02:20:59;97327.31;;;21.82;85.41
21980;BME280;11154;48.558;9.234;2022-08-04T02:23:05;97325.66;;;21.81;85.06
21980;BME280;11154;48.558;9.234;2022-08-04T02:25:09;97317.78;;;21.80;85.55
21980;BME280;11154;48.558;9.234;2022-08-04T02:27:12;97325.31;;;21.78;86.24
21980;BME280;11154;48.558;9.234;2022-08-04T02:29:18;97325.31;;;21.78;86.18
21980;BME280;11154;48.558;9.234;2022-08-04T02:31:26;97320.94;;;21.77;86.25
21980;BME280;11154;48.558;9.234;2022-08-04T02:33:35;97329.06;;;21.77;85.68
21980;BME280;11154;48.558;9.234;2022-08-04T02:35:40;97324.25;;;21.79;85.28
21980;BME280;11154;48.558;9.234;2022-08-04T02:37:46;97312.81;;;21.77;84.00
21980;BME280;11154;48.558;9.234;2022-08-04T02:39:51;97312.81;;;21.77;83.91
21980;BME280;11154;48.558;9.234;2022-08-04T02:41:54;97318.38;;;21.71;84.23
21980;BME280;11154;48.558;9.234;2022-08-04T02:43:58;97314.72;;;21.65;84.55
21980;BME280;11154;48.558;9.234;2022-08-04T02:46:01;97310.94;;;21.66;84.91
21980;BME280;11154;48.558;9.234;2022-08-04T02:48:04;97320.94;;;21.66;85.93
21980;BME280;11154;48.558;9.234;2022-08-04T02:50:10;97318.81;;;21.68;85.98
21980;BME280;11154;48.558;9.234;2022-08-04T02:52:17;97313.66;;;21.66;85.34
21980;BME280;11154;48.558;9.234;2022-08-04T02:54:24;97316.34;;;21.66;85.16
21980;BME280;11154;48.558;9.234;2022-08-04T02:56:30;97312.59;;;21.67;86.13
21980;BME280;11154;48.558;9.234;2022-08-04T02:58:34;97316.34;;;21.66;86.66
21980;BME280;11154;48.558;9.234;2022-08-04T03:00:36;97321.19;;;21.64;87.49
21980;BME280;11154;48.558;9.234;2022-08-04T03:02:49;97320.56;;;21.62;87.97
21980;BME280;11154;48.558;9.234;2022-08-04T03:04:56;97318.13;;;21.61;87.88
21980;BME280;11154;48.558;9.234;2022-08-04T03:07:32;97316.25;;;21.61;88.11
21980;BME280;11154;48.558;9.234;2022-08-04T03:13:01;97317.00;;;21.50;89.04
21980;BME280;11154;48.558;9.234;2022-08-04T03:15:34;97322.91;;;21.47;89.20
21980;BME280;11154;48.558;9.234;2022-08-04T03:18:06;97318.66;;;21.40;88.71
21980;BME280;11154;48.558;9.234;2022-08-04T03:20:49;97318.44;;;21.41;88.83
21980;BME280;11154;48.558;9.234;2022-08-04T03:23:06;97327.59;;;21.40;87.90
21980;BME280;11154;48.558;9.234;2022-08-04T03:25:37;97327.59;;;21.40;86.75
21980;BME280;11154;48.558;9.234;2022-08-04T03:30:35;97332.41;;;21.38;87.04
21980;BME280;11154;48.558;9.234;2022-08-04T03:33:01;97325.47;;;21.42;87.10
21980;BME280;11154;48.558;9.234;2022-08-04T03:35:29;97328.66;;;21.39;86.93
21980;BME280;11154;48.558;9.234;2022-08-04T03:38:06;97334.66;;;21.41;86.94
21980;BME280;11154;48.558;9.234;2022-08-04T03:40:39;97331.00;;;21.36;85.91
21980;BME280;11154;48.558;9.234;2022-08-04T03:43:22;97331.00;;;21.36;85.43
21980;BME280;11154;48.558;9.234;2022-08-04T03:48:41;97344.28;;;21.37;86.05
21980;BME280;11154;48.558;9.234;2022-08-04T03:51:06;97336.53;;;21.41;85.95
21980;BME280;11154;48.558;9.234;2022-08-04T03:53:37;97333.38;;;21.44;86.27
21980;BME280;11154;48.558;9.234;2022-08-04T03:55:47;97343.97;;;21.45;85.86
21980;BME280;11154;48.558;9.234;2022-08-04T03:58:10;97343.97;;;21.45;86.67
21980;BME280;11154;48.558;9.234;2022-08-04T04:00:14;97344.19;;;21.44;86.71
21980;BME280;11154;48.558;9.234;2022-08-04T04:05:17;97348.41;;;21.40;85.82
21980;BME280;11154;48.558;9.234;2022-08-04T04:07:52;97343.34;;;21.43;84.88
21980;BME280;11154;48.558;9.234;2022-08-04T04:10:11;97342.53;;;21.43;84.72
21980;BME280;11154;48.558;9.234;2022-08-04T04:12:40;97331.72;;;21.43;85.10
21980;BME280;11154;48.558;9.234;2022-08-04T04:15:02;97330.31;;;21.40;85.08
21980;BME280;11154;48.558;9.234;2022-08-04T04:17:29;97339.25;;;21.41;84.90
21980;BME280;11154;48.558;9.234;2022-08-04T04:19:52;97334.66;;;21.41;84.80
21980;BME280;11154;48.558;9.234;2022-08-04T04:22:07;97336.28;;;21.42;84.95
21980;BME280;11154;48.558;9.234;2022-08-04T04:24:37;97341.69;;;21.42;84.88
21980;BME280;11154;48.558;9.234;2022-08-04T04:26:54;97340.66;;;21.43;85.18
21980;BME280;11154;48.558;9.234;2022-08-04T04:29:08;97336.28;;;21.42;85.41
21980;BME280;11154;48.558;9.234;2022-08-04T04:31:23;97340.53;;;21.38;85.99
21980;BME280;11154;48.558;9.234;2022-08-04T04:33:39;97335.25;;;21.32;85.90
21980;BME280;11154;48.558;9.234;2022-08-04T04:35:55;97346.16;;;21.25;86.35
21980;BME280;11154;48.558;9.234;2022-08-04T04:40:40;97346.28;;;21.19;87.46
21980;BME280;11154;48.558;9.234;2022-08-04T04:42:58;97340.50;;;21.15;87.58
21980;BME280;11154;48.558;9.234;2022-08-04T04:45:21;97345.91;;;21.15;87.57
21980;BME280;11154;48.558;9.234;2022-08-04T04:47:30;97337.59;;;20.88;89.43
21980;BME280;11154;48.558;9.234;2022-08-04T04:49:39;97342.72;;;20.78;90.92
21980;BME280;11154;48.558;9.234;2022-08-04T04:51:48;97346.53;;;20.70;91.56
21980;BME280;11154;48.558;9.234;2022-08-04T04:53:55;97337.59;;;20.70;91.56
21980;BME280;11154;48.558;9.234;2022-08-04T04:56:04;97349.47;;;20.69;92.45
21980;BME280;11154;48.558;9.234;2022-08-04T04:58:14;97344.97;;;20.63;92.73
21980;BME280;11154;48.558;9.234;2022-08-04T05:00:17;97347.44;;;20.64;93.16
21980;BME280;11154;48.558;9.234;2022-08-04T05:05:10;97338.53;;;20.64;95.08
21980;BME280;11154;48.558;9.234;2022-08-04T05:07:43;97347.91;;;20.61;96.02
21980;BME280;11154;48.558;9.234;2022-08-04T05:10:02;97344.47;;;20.54;96.12
21980;BME280;11154;48.558;9.234;2022-08-04T05:12:31;97338.47;;;20.52;95.70
21980;BME280;11154;48.558;9.234;2022-08-04T05:14:41;97344.72;;;20.53;95.23
21980;BME280;11154;48.558;9.234;2022-08-04T05:16:48;97352.19;;;20.51;96.90
21980;BME280;11154;48.558;9.234;2022-08-04T05:18:56;97342.81;;;20.53;96.95
21980;BME280;11154;48.558;9.234;2022-08-04T05:21:18;97349.50;;;20.51;97.29
21980;BME280;11154;48.558;9.234;2022-08-04T05:23:26;97338.81;;;20.56;97.61
21980;BME280;11154;48.558;9.234;2022-08-04T05:25:33;97352.56;;;20.54;97.75
21980;BME280;11154;48.558;9.234;2022-08-04T05:27:38;97354.00;;;20.57;95.73
21980;BME280;11154;48.558;9.234;2022-08-04T05:29:55;97354.72;;;20.64;95.50
21980;BME280;11154;48.558;9.234;2022-08-04T05:32:01;97349.09;;;20.65;96.53
21980;BME280;11154;48.558;9.234;2022-08-04T05:34:08;97344.53;;;20.66;96.63
21980;BME280;11154;48.558;9.234;2022-08-04T05:36:17;97343.25;;;20.68;95.67
21980;BME280;11154;48.558;9.234;2022-08-04T05:38:21;97343.63;;;20.72;94.58
21980;BME280;11154;48.558;9.234;2022-08-04T05:40:24;97341.06;;;20.77;95.02
21980;BME280;11154;48.558;9.234;2022-08-04T05:42:27;97343.47;;;20.85;95.28
21980;BME280;11154;48.558;9.234;2022-08-04T05:44:31;97339.69;;;20.86;95.80
21980;BME280;11154;48.558;9.234;2022-08-04T05:46:36;97349.69;;;20.85;96.52
21980;BME280;11154;48.558;9.234;2022-08-04T05:48:38;97350.88;;;20.89;99.06
21980;BME280;11154;48.558;9.234;2022-08-04T05:50:41;97352.75;;;20.89;99.75
21980;BME280;11154;48.558;9.234;2022-08-04T05:52:44;97351.34;;;20.86;98.18
21980;BME280;11154;48.558;9.234;2022-08-04T05:54:47;97351.03;;;20.94;98.05
21980;BME280;11154;48.558;9.234;2022-08-04T05:56:50;97349.25;;;21.00;98.31
21980;BME280;11154;48.558;9.234;2022-08-04T05:58:55;97351.03;;;21.05;98.27
21980;BME280;11154;48.558;9.234;2022-08-04T06:00:58;97360.19;;;21.04;96.59
21980;BME280;11154;48.558;9.234;2022-08-04T06:03:02;97354.72;;;21.11;97.07
21980;BME280;11154;48.558;9.234;2022-08-04T06:05:06;97363.78;;;21.16;97.05
21980;BME280;11154;48.558;9.234;2022-08-04T06:07:09;97352.97;;;21.16;94.37
21980;BME280;11154;48.558;9.234;2022-08-04T06:09:11;97356.38;;;21.23;94.09
21980;BME280;11154;48.558;9.234;2022-08-04T06:11:13;97354.19;;;21.32;93.89
21980;BME280;11154;48.558;9.234;2022-08-04T06:13:19;97351.00;;;21.35;92.76
21980;BME280;11154;48.558;9.234;2022-08-04T06:15:26;97353.81;;;21.40;93.66
21980;BME280;11154;48.558;9.234;2022-08-04T06:17:32;97351.03;;;21.46;93.47
21980;BME280;11154;48.558;9.234;2022-08-04T06:19:39;97352.34;;;21.55;95.51
21980;BME280;11154;48.558;9.234;2022-08-04T06:21:44;97348.72;;;21.61;94.22
21980;BME280;11154;48.558;9.234;2022-08-04T06:23:48;97357.88;;;21.72;94.44
21980;BME280;11154;48.558;9.234;2022-08-04T06:25:52;97354.59;;;21.81;95.11
21980;BME280;11154;48.558;9.234;2022-08-04T06:27:57;97352.84;;;21.86;95.92
21980;BME280;11154;48.558;9.234;2022-08-04T06:29:59;97354.16;;;21.95;93.56
21980;BME280;11154;48.558;9.234;2022-08-04T06:32:03;97358.81;;;22.11;93.04
21980;BME280;11154;48.558;9.234;2022-08-04T06:34:13;97354.00;;;22.25;92.12
21980;BME280;11154;48.558;9.234;2022-08-04T06:36:17;97352.34;;;22.35;91.16
21980;BME280;11154;48.558;9.234;2022-08-04T06:38:20;97348.19;;;22.55;93.04
21980;BME280;11154;48.558;9.234;2022-08-04T06:40:23;97359.84;;;22.56;88.36
21980;BME280;11154;48.558;9.234;2022-08-04T06:42:26;97362.81;;;22.82;90.93
21980;BME280;11154;48.558;9.234;2022-08-04T06:44:28;97349.38;;;22.87;90.22
21980;BME280;11154;48.558;9.234;2022-08-04T06:46:31;97345.91;;;22.92;89.21
21980;BME280;11154;48.558;9.234;2022-08-04T06:48:35;97336.09;;;23.02;87.62
21980;BME280;11154;48.558;9.234;2022-08-04T06:50:38;97342.28;;;23.14;88.16
21980;BME280;11154;48.558;9.234;2022-08-04T06:52:43;97348.38;;;23.21;85.90
21980;BME280;11154;48.558;9.234;2022-08-04T06:54:46;97352.94;;;23.32;86.98
21980;BME280;11154;48.558;9.234;2022-08-04T06:56:48;97352.50;;;23.40;84.33
21980;BME280;11154;48.558;9.234;2022-08-04T06:58:53;97349.06;;;23.44;83.95
21980;BME280;11154;48.558;9.234;2022-08-04T07:00:55;97352.84;;;23.60;85.04
21980;BME280;11154;48.558;9.234;2022-08-04T07:03:02;97351.50;;;23.74;85.63
21980;BME280;11154;48.558;9.234;2022-08-04T07:05:05;97360.53;;;23.96;83.24
21980;BME280;11154;48.558;9.234;2022-08-04T07:07:07;97354.25;;;24.11;81.73
21980;BME280;11154;48.558;9.234;2022-08-04T07:09:10;97356.94;;;24.28;82.54
21980;BME280;11154;48.558;9.234;2022-08-04T07:11:13;97358.63;;;24.34;83.58
21980;BME280;11154;48.558;9.234;2022-08-04T07:13:16;97347.28;;;24.37;79.84
21980;BME280;11154;48.558;9.234;2022-08-04T07:15:19;97355.91;;;24.34;79.07
21980;BME280;11154;48.558;9.234;2022-08-04T07:17:21;97355.84;;;24.45;80.72
21980;BME280;11154;48.558;9.234;2022-08-04T07:19:23;97355.66;;;24.52;83.44
21980;BME280;11154;48.558;9.234;2022-08-04T07:21:25;97354.56;;;24.53;81.93
21980;BME280;11154;48.558;9.234;2022-08-04T07:23:27;97354.94;;;24.61;78.56
21980;BME280;11154;48.558;9.234;2022-08-04T07:25:31;97349.66;;;24.71;77.97
21980;BME280;11154;48.558;9.234;2022-08-04T07:27:33;97346.78;;;24.82;77.67
21980;BME280;11154;48.558;9.234;2022-08-04T07:29:35;97344.63;;;24.84;76.57
21980;BME280;11154;48.558;9.234;2022-08-04T07:31:38;97349.56;;;24.87;76.16
21980;BME280;11154;48.558;9.234;2022-08-04T07:33:40;97345.34;;;25.01;75.99
21980;BME280;11154;48.558;9.234;2022-08-04T07:35:42;97343.59;;;25.12;78.74
21980;BME280;11154;48.558;9.234;2022-08-04T07:37:45;97346.59;;;25.10;74.33
21980;BME280;11154;48.558;9.234;2022-08-04T07:39:47;97347.97;;;25.13;72.08
21980;BME280;11154;48.558;9.234;2022-08-04T07:41:50;97348.44;;;25.31;77.01
21980;BME280;11154;48.558;9.234;2022-08-04T07:43:52;97348.78;;;25.40;77.14
21980;BME280;11154;48.558;9.234;2022-08-04T07:45:55;97345.03;;;25.46;72.38
21980;BME280;11154;48.558;9.234;2022-08-04T07:47:56;97344.56;;;25.53;73.68
21980;BME280;11154;48.558;9.234;2022-08-04T07:49:58;97344.88;;;25.57;71.54
21980;BME280;11154;48.558;9.234;2022-08-04T07:52:00;97339.72;;;25.60;68.83
21980;BME280;11154;48.558;9.234;2022-08-04T07:54:04;97342.97;;;25.62;69.52
21980;BME280;11154;48.558;9.234;2022-08-04T07:56:08;97351.34;;;25.82;73.14
21980;BME280;11154;48.558;9.234;2022-08-04T07:58:12;97344.81;;;25.83;69.76
21980;BME280;11154;48.558;9.234;2022-08-04T08:00:14;97353.28;;;25.82;68.27
21980;BME280;11154;48.558;9.234;2022-08-04T08:02:18;97339.97;;;25.90;72.83
21980;BME280;11154;48.558;9.234;2022-08-04T08:04:21;97343.00;;;25.94;68.29
21980;BME280;11154;48.558;9.234;2022-08-04T08:06:24;97339.97;;;25.90;66.46
21980;BME280;11154;48.558;9.234;2022-08-04T08:08:28;97340.03;;;26.00;68.50
21980;BME280;11154;48.558;9.234;2022-08-04T08:10:30;97335.53;;;26.21;68.30
21980;BME280;11154;48.558;9.234;2022-08-04T08:12:32;97329.31;;;26.30;69.53
21980;BME280;11154;48.558;9.234;2022-08-04T08:14:35;97340.47;;;26.23;66.30
21980;BME280;11154;48.558;9.234;2022-08-04T08:16:37;97332.53;;;26.22;65.74
21980;BME280;11154;48.558;9.234;2022-08-04T08:18:39;97341.28;;;26.24;64.75
21980;BME280;11154;48.558;9.234;2022-08-04T08:20:43;97332.66;;;26.37;68.47
21980;BME280;11154;48.558;9.234;2022-08-04T08:22:46;97327.28;;;26.52;67.62
21980;BME280;11154;48.558;9.234;2022-08-04T08:24:47;97325.13;;;26.59;64.93
21980;BME280;11154;48.558;9.234;2022-08-04T08:26:49;97327.91;;;26.69;63.91
21980;BME280;11154;48.558;9.234;2022-08-04T08:28:51;97321.91;;;26.77;63.80
21980;BME280;11154;48.558;9.234;2022-08-04T08:30:54;97324.69;;;26.97;63.97
21980;BME280;11154;48.558;9.234;2022-08-04T08:32:56;97319.25;;;26.97;60.64
21980;BME280;11154;48.558;9.234;2022-08-04T08:34:58;97326.94;;;27.14;60.26
21980;BME280;11154;48.558;9.234;2022-08-04T08:37:03;97326.16;;;27.24;60.24
21980;BME280;11154;48.558;9.234;2022-08-04T08:39:11;97320.44;;;27.20;58.15
21980;BME280;11154;48.558;9.234;2022-08-04T08:41:51;97321.53;;;27.19;58.50
21980;BME280;11154;48.558;9.234;2022-08-04T08:46:57;97322.91;;;27.32;57.70
21980;BME280;11154;48.558;9.234;2022-08-04T08:49:15;97319.34;;;27.41;56.28
21980;BME280;11154;48.558;9.234;2022-08-04T08:51:39;97319.09;;;27.43;55.17
21980;BME280;11154;48.558;9.234;2022-08-04T08:56:27;97322.41;;;27.65;55.13
21980;BME280;11154;48.558;9.234;2022-08-04T08:59:07;97325.69;;;27.72;53.52
21980;BME280;11154;48.558;9.234;2022-08-04T09:01:30;97325.97;;;27.90;54.39
21980;BME280;11154;48.558;9.234;2022-08-04T09:03:50;97329.75;;;27.99;52.53
21980;BME280;11154;48.558;9.234;2022-08-04T09:06:10;97323.75;;;28.02;53.08
21980;BME280;11154;48.558;9.234;2022-08-04T09:08:30;97328.91;;;28.13;53.38
21980;BME280;11154;48.558;9.234;2022-08-04T09:10:40;97328.38;;;28.11;52.22
21980;BME280;11154;48.558;9.234;2022-08-04T09:12:49;97326.16;;;28.13;52.08
21980;BME280;11154;48.558;9.234;2022-08-04T09:14:57;97324.28;;;28.19;52.50
21980;BME280;11154;48.558;9.234;2022-08-04T09:17:02;97323.44;;;28.28;53.28
21980;BME280;11154;48.558;9.234;2022-08-04T09:19:11;97329.16;;;28.37;52.01
21980;BME280;11154;48.558;9.234;2022-08-04T09:21:21;97323.66;;;28.51;52.08
21980;BME280;11154;48.558;9.234;2022-08-04T09:23:28;97331.56;;;28.63;52.34
21980;BME280;11154;48.558;9.234;2022-08-04T09:25:39;97322.47;;;28.67;49.99
21980;BME280;11154;48.558;9.234;2022-08-04T09:27:46;97315.06;;;28.73;49.55
21980;BME280;11154;48.558;9.234;2022-08-04T09:29:55;97317.81;;;28.78;48.04
21980;BME280;11154;48.558;9.234;2022-08-04T09:32:09;97318.06;;;28.81;46.98
21980;BME280;11154;48.558;9.234;2022-08-04T09:34:21;97319.16;;;28.85;47.29
21980;BME280;11154;48.558;9.234;2022-08-04T09:36:30;97312.53;;;28.96;45.65
21980;BME280;11154;48.558;9.234;2022-08-04T09:38:42;97309.16;;;29.09;48.24
21980;BME280;11154;48.558;9.234;2022-08-04T09:40:49;97315.19;;;29.06;44.76
21980;BME280;11154;48.558;9.234;2022-08-04T09:43:04;97320.09;;;29.14;45.05
21980;BME280;11154;48.558;9.234;2022-08-04T09:45:15;97307.09;;;29.34;47.33
21980;BME280;11154;48.558;9.234;2022-08-04T09:47:21;97307.34;;;29.38;43.74
21980;BME280;11154;48.558;9.234;2022-08-04T09:49:31;97315.00;;;29.41;43.28
21980;BME280;11154;48.558;9.234;2022-08-04T09:51:44;97318.25;;;29.48;45.06
21980;BME280;11154;48.558;9.234;2022-08-04T09:53:56;97307.69;;;29.65;48.83
21980;BME280;11154;48.558;9.234;2022-08-04T09:56:07;97309.47;;;29.79;45.51
21980;BME280;11154;48.558;9.234;2022-08-04T09:58:15;97305.09;;;29.78;42.17
21980;BME280;11154;48.558;9.234;2022-08-04T10:00:22;97305.63;;;29.80;42.55
21980;BME280;11154;48.558;9.234;2022-08-04T10:02:31;97309.03;;;30.00;45.09
21980;BME280;11154;48.558;9.234;2022-08-04T10:04:38;97308.59;;;30.17;47.70
21980;BME280;11154;48.558;9.234;2022-08-04T10:07:10;97302.63;;;30.10;40.47
21980;BME280;11154;48.558;9.234;2022-08-04T10:09:29;97300.13;;;30.13;42.23
21980;BME280;11154;48.558;9.234;2022-08-04T10:11:45;97295.84;;;30.02;40.13
21980;BME280;11154;48.558;9.234;2022-08-04T10:13:56;97298.84;;;30.06;44.13
21980;BME280;11154;48.558;9.234;2022-08-04T10:16:10;97284.50;;;30.14;40.85
21980;BME280;11154;48.558;9.234;2022-08-04T10:18:29;97288.59;;;30.16;43.18
21980;BME280;11154;48.558;9.234;2022-08-04T10:20:54;97282.63;;;30.09;40.27
21980;BME280;11154;48.558;9.234;2022-08-04T10:23:07;97280.75;;;30.28;44.52
21980;BME280;11154;48.558;9.234;2022-08-04T10:25:20;97281.22;;;30.35;42.37
21980;BME280;11154;48.558;9.234;2022-08-04T10:27:29;97278.34;;;30.50;43.56
21980;BME280;11154;48.558;9.234;2022-08-04T10:29:40;97275.47;;;30.60;40.57
21980;BME280;11154;48.558;9.234;2022-08-04T10:31:47;97273.63;;;30.74;45.05
21980;BME280;11154;48.558;9.234;2022-08-04T10:34:00;97263.66;;;30.83;42.60
21980;BME280;11154;48.558;9.234;2022-08-04T10:36:08;97268.06;;;30.79;39.56
21980;BME280;11154;48.558;9.234;2022-08-04T10:38:15;97263.50;;;30.93;36.30
21980;BME280;11154;48.558;9.234;2022-08-04T10:40:22;97259.94;;;31.11;43.09
21980;BME280;11154;48.558;9.234;2022-08-04T10:42:49;97255.44;;;31.20;37.45
21980;BME280;11154;48.558;9.234;2022-08-04T10:45:03;97264.41;;;31.25;36.00
21980;BME280;11154;48.558;9.234;2022-08-04T10:47:13;97249.56;;;31.08;31.96
21980;BME280;11154;48.558;9.234;2022-08-04T10:49:22;97262.06;;;30.95;32.46
21980;BME280;11154;48.558;9.234;2022-08-04T10:51:32;97253.22;;;31.03;32.84
21980;BME280;11154;48.558;9.234;2022-08-04T10:53:37;97254.91;;;31.18;32.93
21980;BME280;11154;48.558;9.234;2022-08-04T10:55:43;97253.44;;;31.07;31.42
21980;BME280;11154;48.558;9.234;2022-08-04T10:57:50;97252.91;;;31.23;35.44
21980;BME280;11154;48.558;9.234;2022-08-04T10:59:57;97250.88;;;31.29;32.76
21980;BME280;11154;48.558;9.234;2022-08-04T11:02:16;97256.47;;;31.24;32.89
21980;BME280;11154;48.558;9.234;2022-08-04T11:04:25;97247.19;;;31.20;34.17
21980;BME280;11154;48.558;9.234;2022-08-04T11:06:31;97252.44;;;31.35;35.04
21980;BME280;11154;48.558;9.234;2022-08-04T11:08:35;97247.91;;;31.25;32.52
21980;BME280;11154;48.558;9.234;2022-08-04T11:10:42;97239.03;;;31.15;33.19
21980;BME280;11154;48.558;9.234;2022-08-04T11:12:47;97245.03;;;31.17;32.95
21980;BME280;11154;48.558;9.234;2022-08-04T11:14:55;97237.97;;;31.29;35.49
21980;BME280;11154;48.558;9.234;2022-08-04T11:17:00;97248.56;;;31.36;33.92
21980;BME280;11154;48.558;9.234;2022-08-04T11:19:12;97244.78;;;31.32;32.54
21980;BME280;11154;48.558;9.234;2022-08-04T11:21:19;97239.38;;;31.27;33.41
21980;BME280;11154;48.558;9.234;2022-08-04T11:23:28;97239.81;;;31.34;33.10
21980;BME280;11154;48.558;9.234;2022-08-04T11:25:40;97235.81;;;31.26;32.25
21980;BME280;11154;48.558;9.234;2022-08-04T11:27:53;97236.09;;;31.25;32.33
21980;BME280;11154;48.558;9.234;2022-08-04T11:30:02;97241.28;;;31.26;32.34
21980;BME280;11154;48.558;9.234;2022-08-04T11:32:09;97242.63;;;31.29;31.89
21980;BME280;11154;48.558;9.234;2022-08-04T11:34:18;97243.91;;;31.36;35.67
21980;BME280;11154;48.558;9.234;2022-08-04T11:36:28;97243.59;;;31.56;35.67
21980;BME280;11154;48.558;9.234;2022-08-04T11:38:36;97237.59;;;31.67;37.01
21980;BME280;11154;48.558;9.234;2022-08-04T11:40:43;97237.50;;;31.72;34.36
21980;BME280;11154;48.558;9.234;2022-08-04T11:42:52;97234.69;;;31.77;35.27
21980;BME280;11154;48.558;9.234;2022-08-04T11:45:00;97236.72;;;31.85;34.13
21980;BME280;11154;48.558;9.234;2022-08-04T11:47:08;97232.69;;;31.96;35.61
21980;BME280;11154;48.558;9.234;2022-08-04T11:49:19;97235.50;;;31.91;32.41
21980;BME280;11154;48.558;9.234;2022-08-04T11:51:25;97240.00;;;31.87;37.22
21980;BME280;11154;48.558;9.234;2022-08-04T11:53:29;97237.88;;;31.98;40.20
21980;BME280;11154;48.558;9.234;2022-08-04T11:55:33;97228.66;;;32.07;38.05